sensor_id;sensor_type;location;lat;lon;timestamp;P1;durP1;ratioP1;P2;durP2;ratioP2
9214;SDS011;4642;51.364;6.788;2023-09-30T00:00:46;7.97;;;2.97;;
9214;SDS011;4642;51.364;6.788;2023-09-30T00:03:11;8.30;;;3.40;;
9214;SDS011;4642;51.364;6.788;2023-09-30T00:05:37;15.70;;;3.23;;
9214;SDS011;4642;51.364;6.788;2023-09-30T00:08:03;8.80;;;3.53;;
9214;SDS011;4642;51.364;6.788;2023-09-30T00:10:30;6.93;;;3.20;;
9214;SDS011;4642;51.364;6.788;2023-09-30T00:12:56;9.33;;;3.00;;
9214;SDS011;4642;51.364;6.788;2023-09-30T00:15:22;6.73;;;3.17;;
9214;SDS011;4642;51.364;6.788;2023-09-30T00:17:47;12.67;;;3.67;;
9214;SDS011;4642;51.364;6.788;2023-09-30T00:20:14;12.00;;;3.43;;
9214;SDS011;4642;51.364;6.788;2023-09-30T00:22:42;10.63;;;3.30;;
9214;SDS011;4642;51.364;6.788;2023-09-30T00:25:08;10.20;;;2.93;;
9214;SDS011;4642;51.364;6.788;2023-09-30T00:27:35;12.63;;;3.50;;
9214;SDS011;4642;51.364;6.788;2023-09-30T00:30:00;5.87;;;3.17;;
9214;SDS011;4642;51.364;6.788;2023-09-30T00:32:26;9.83;;;3.93;;
9214;SDS011;4642;51.364;6.788;2023-09-30T00:34:52;13.27;;;3.50;;
9214;SDS011;4642;51.364;6.788;2023-09-30T00:37:18;10.20;;;3.47;;
9214;SDS011;4642;51.364;6.788;2023-09-30T00:39:44;6.77;;;3.00;;
9214;SDS011;4642;51.364;6.788;2023-09-30T00:42:10;7.43;;;3.10;;
9214;SDS011;4642;51.364;6.788;2023-09-30T00:44:35;9.77;;;3.40;;
9214;SDS011;4642;51.364;6.788;2023-09-30T00:47:01;8.63;;;3.50;;
9214;SDS011;4642;51.364;6.788;2023-09-30T00:49:27;9.27;;;3.57;;
9214;SDS011;4642;51.364;6.788;2023-09-30T00:51:54;7.70;;;3.27;;
9214;SDS011;4642;51.364;6.788;2023-09-30T00:54:20;10.60;;;3.40;;
9214;SDS011;4642;51.364;6.788;2023-09-30T00:56:48;13.90;;;3.60;;
9214;SDS011;4642;51.364;6.788;2023-09-30T00:59:16;13.23;;;3.67;;
9214;SDS011;4642;51.364;6.788;2023-09-30T01:01:42;10.90;;;3.27;;
9214;SDS011;4642;51.364;6.788;2023-09-30T01:04:09;9.13;;;3.60;;
9214;SDS011;4642;51.364;6.788;2023-09-30T01:06:35;13.57;;;3.53;;
9214;SDS011;4642;51.364;6.788;2023-09-30T01:09:01;7.13;;;3.63;;
9214;SDS011;4642;51.364;6.788;2023-09-30T01:11:27;10.90;;;4.43;;
9214;SDS011;4642;51.364;6.788;2023-09-30T01:13:53;7.27;;;3.57;;
9214;SDS011;4642;51.364;6.788;2023-09-30T01:16:20;12.20;;;4.67;;
9214;SDS011;4642;51.364;6.788;2023-09-30T01:18:46;13.03;;;3.60;;
9214;SDS011;4642;51.364;6.788;2023-09-30T01:21:12;10.23;;;4.20;;
9214;SDS011;4642;51.364;6.788;2023-09-30T01:23:38;7.97;;;3.50;;
9214;SDS011;4642;51.364;6.788;2023-09-30T01:26:04;8.27;;;3.63;;
9214;SDS011;4642;51.364;6.788;2023-09-30T01:28:33;9.17;;;3.90;;
9214;SDS011;4642;51.364;6.788;2023-09-30T01:30:59;8.43;;;3.63;;
9214;SDS011;4642;51.364;6.788;2023-09-30T01:33:25;12.40;;;3.97;;
9214;SDS011;4642;51.364;6.788;2023-09-30T01:35:51;8.30;;;3.67;;
9214;SDS011;4642;51.364;6.788;2023-09-30T01:38:17;12.00;;;4.20;;
9214;SDS011;4642;51.364;6.788;2023-09-30T01:40:43;7.63;;;3.93;;
9214;SDS011;4642;51.364;6.788;2023-09-30T01:43:08;10.33;;;4.20;;
9214;SDS011;4642;51.364;6.788;2023-09-30T01:45:34;10.87;;;4.53;;
9214;SDS011;4642;51.364;6.788;2023-09-30T01:48:00;11.83;;;3.60;;
9214;SDS011;4642;51.364;6.788;2023-09-30T01:50:27;9.90;;;3.77;;
9214;SDS011;4642;51.364;6.788;2023-09-30T01:52:52;11.27;;;4.30;;
9214;SDS011;4642;51.364;6.788;2023-09-30T01:55:18;11.43;;;4.60;;
9214;SDS011;4642;51.364;6.788;2023-09-30T01:57:43;9.77;;;4.03;;
9214;SDS011;4642;51.364;6.788;2023-09-30T02:00:09;8.37;;;4.07;;
9214;SDS011;4642;51.364;6.788;2023-09-30T02:02:35;9.40;;;3.90;;
9214;SDS011;4642;51.364;6.788;2023-09-30T02:05:02;10.47;;;4.60;;
9214;SDS011;4642;51.364;6.788;2023-09-30T02:07:27;7.70;;;3.87;;
9214;SDS011;4642;51.364;6.788;2023-09-30T02:09:54;8.97;;;4.10;;
9214;SDS011;4642;51.364;6.788;2023-09-30T02:12:20;11.43;;;4.00;;
9214;SDS011;4642;51.364;6.788;2023-09-30T02:14:45;9.27;;;4.23;;
9214;SDS011;4642;51.364;6.788;2023-09-30T02:17:11;8.00;;;4.13;;
9214;SDS011;4642;51.364;6.788;2023-09-30T02:19:38;15.37;;;4.40;;
9214;SDS011;4642;51.364;6.788;2023-09-30T02:22:05;8.73;;;3.87;;
9214;SDS011;4642;51.364;6.788;2023-09-30T02:24:31;14.03;;;4.00;;
9214;SDS011;4642;51.364;6.788;2023-09-30T02:26:57;10.77;;;4.53;;
9214;SDS011;4642;51.364;6.788;2023-09-30T02:29:23;7.37;;;4.47;;
9214;SDS011;4642;51.364;6.788;2023-09-30T02:31:48;11.23;;;4.27;;
9214;SDS011;4642;51.364;6.788;2023-09-30T02:34:14;11.27;;;4.90;;
9214;SDS011;4642;51.364;6.788;2023-09-30T02:36:40;10.90;;;4.97;;
9214;SDS011;4642;51.364;6.788;2023-09-30T02:39:06;12.07;;;4.73;;
9214;SDS011;4642;51.364;6.788;2023-09-30T02:41:34;7.50;;;3.90;;
9214;SDS011;4642;51.364;6.788;2023-09-30T02:44:00;8.17;;;4.17;;
9214;SDS011;4642;51.364;6.788;2023-09-30T02:46:25;7.10;;;3.80;;
9214;SDS011;4642;51.364;6.788;2023-09-30T02:48:53;11.20;;;3.40;;
9214;SDS011;4642;51.364;6.788;2023-09-30T02:51:18;11.73;;;3.67;;
9214;SDS011;4642;51.364;6.788;2023-09-30T02:53:44;11.30;;;4.23;;
9214;SDS011;4642;51.364;6.788;2023-09-30T02:56:10;11.03;;;3.93;;
9214;SDS011;4642;51.364;6.788;2023-09-30T02:58:35;8.87;;;3.83;;
9214;SDS011;4642;51.364;6.788;2023-09-30T03:01:01;8.00;;;3.70;;
9214;SDS011;4642;51.364;6.788;2023-09-30T03:03:26;9.03;;;4.10;;
9214;SDS011;4642;51.364;6.788;2023-09-30T03:05:52;9.77;;;3.53;;
9214;SDS011;4642;51.364;6.788;2023-09-30T03:08:19;8.80;;;3.70;;
9214;SDS011;4642;51.364;6.788;2023-09-30T03:10:45;14.87;;;3.63;;
9214;SDS011;4642;51.364;6.788;2023-09-30T03:13:11;13.10;;;3.53;;
9214;SDS011;4642;51.364;6.788;2023-09-30T03:15:37;7.47;;;3.43;;
9214;SDS011;4642;51.364;6.788;2023-09-30T03:18:03;11.50;;;3.83;;
9214;SDS011;4642;51.364;6.788;2023-09-30T03:20:29;9.37;;;4.40;;
9214;SDS011;4642;51.364;6.788;2023-09-30T03:22:56;10.20;;;3.53;;
9214;SDS011;4642;51.364;6.788;2023-09-30T03:25:22;9.00;;;3.77;;
9214;SDS011;4642;51.364;6.788;2023-09-30T03:27:48;11.67;;;4.23;;
9214;SDS011;4642;51.364;6.788;2023-09-30T03:30:14;7.33;;;3.80;;
9214;SDS011;4642;51.364;6.788;2023-09-30T03:32:41;9.90;;;3.80;;
9214;SDS011;4642;51.364;6.788;2023-09-30T03:35:07;10.27;;;3.83;;
9214;SDS011;4642;51.364;6.788;2023-09-30T03:37:36;10.50;;;3.90;;
9214;SDS011;4642;51.364;6.788;2023-09-30T03:40:02;9.47;;;4.17;;
9214;SDS011;4642;51.364;6.788;2023-09-30T03:42:38;10.17;;;3.93;;
9214;SDS011;4642;51.364;6.788;2023-09-30T03:45:05;13.97;;;3.80;;
9214;SDS011;4642;51.364;6.788;2023-09-30T03:47:37;9.43;;;4.47;;
9214;SDS011;4642;51.364;6.788;2023-09-30T03:50:03;13.50;;;4.27;;
9214;SDS011;4642;51.364;6.788;2023-09-30T03:52:30;6.90;;;3.80;;
9214;SDS011;4642;51.364;6.788;2023-09-30T03:54:58;8.63;;;3.83;;
9214;SDS011;4642;51.364;6.788;2023-09-30T03:57:24;12.13;;;3.73;;
9214;SDS011;4642;51.364;6.788;2023-09-30T03:59:51;12.57;;;3.90;;
9214;SDS011;4642;51.364;6.788;2023-09-30T04:02:17;9.00;;;3.87;;
9214;SDS011;4642;51.364;6.788;2023-09-30T04:04:44;9.07;;;4.23;;
9214;SDS011;4642;51.364;6.788;2023-09-30T04:07:11;10.43;;;3.87;;
9214;SDS011;4642;51.364;6.788;2023-09-30T04:09:36;12.60;;;3.90;;
9214;SDS011;4642;51.364;6.788;2023-09-30T04:12:02;7.43;;;4.47;;
9214;SDS011;4642;51.364;6.788;2023-09-30T04:14:28;10.30;;;4.43;;
9214;SDS011;4642;51.364;6.788;2023-09-30T04:16:53;8.97;;;3.53;;
9214;SDS011;4642;51.364;6.788;2023-09-30T04:19:19;15.40;;;4.23;;
9214;SDS011;4642;51.364;6.788;2023-09-30T04:21:45;9.60;;;3.63;;
9214;SDS011;4642;51.364;6.788;2023-09-30T04:24:10;8.83;;;3.40;;
9214;SDS011;4642;51.364;6.788;2023-09-30T04:26:36;12.07;;;4.33;;
9214;SDS011;4642;51.364;6.788;2023-09-30T04:29:02;15.70;;;4.17;;
9214;SDS011;4642;51.364;6.788;2023-09-30T04:31:35;7.87;;;3.77;;
9214;SDS011;4642;51.364;6.788;2023-09-30T04:34:03;12.27;;;4.40;;
9214;SDS011;4642;51.364;6.788;2023-09-30T04:36:29;8.07;;;3.93;;
9214;SDS011;4642;51.364;6.788;2023-09-30T04:38:55;7.60;;;4.27;;
9214;SDS011;4642;51.364;6.788;2023-09-30T04:41:21;10.83;;;3.80;;
9214;SDS011;4642;51.364;6.788;2023-09-30T04:43:46;11.93;;;4.83;;
9214;SDS011;4642;51.364;6.788;2023-09-30T04:46:12;7.57;;;4.10;;
9214;SDS011;4642;51.364;6.788;2023-09-30T04:48:38;10.80;;;4.57;;
9214;SDS011;4642;51.364;6.788;2023-09-30T04:51:08;9.43;;;4.00;;
9214;SDS011;4642;51.364;6.788;2023-09-30T04:53:34;10.10;;;3.90;;
9214;SDS011;4642;51.364;6.788;2023-09-30T04:55:59;10.10;;;4.67;;
9214;SDS011;4642;51.364;6.788;2023-09-30T04:58:26;10.03;;;4.60;;
9214;SDS011;4642;51.364;6.788;2023-09-30T05:00:52;10.83;;;4.20;;
9214;SDS011;4642;51.364;6.788;2023-09-30T05:03:17;10.00;;;4.23;;
9214;SDS011;4642;51.364;6.788;2023-09-30T05:05:44;12.13;;;4.67;;
9214;SDS011;4642;51.364;6.788;2023-09-30T05:08:09;9.57;;;4.37;;
9214;SDS011;4642;51.364;6.788;2023-09-30T05:10:37;9.37;;;4.47;;
9214;SDS011;4642;51.364;6.788;2023-09-30T05:13:03;8.60;;;4.60;;
9214;SDS011;4642;51.364;6.788;2023-09-30T05:15:29;8.57;;;4.80;;
9214;SDS011;4642;51.364;6.788;2023-09-30T05:17:57;9.50;;;4.63;;
9214;SDS011;4642;51.364;6.788;2023-09-30T05:20:22;10.07;;;5.27;;
9214;SDS011;4642;51.364;6.788;2023-09-30T05:22:49;12.97;;;5.30;;
9214;SDS011;4642;51.364;6.788;2023-09-30T05:25:15;11.20;;;4.57;;
9214;SDS011;4642;51.364;6.788;2023-09-30T05:27:42;10.23;;;4.90;;
9214;SDS011;4642;51.364;6.788;2023-09-30T05:30:08;13.83;;;4.93;;
9214;SDS011;4642;51.364;6.788;2023-09-30T05:32:35;15.70;;;5.57;;
9214;SDS011;4642;51.364;6.788;2023-09-30T05:35:04;10.30;;;4.77;;
9214;SDS011;4642;51.364;6.788;2023-09-30T05:37:30;12.60;;;5.43;;
9214;SDS011;4642;51.364;6.788;2023-09-30T05:39:56;9.60;;;5.50;;
9214;SDS011;4642;51.364;6.788;2023-09-30T05:42:22;10.00;;;5.20;;
9214;SDS011;4642;51.364;6.788;2023-09-30T05:44:47;9.63;;;5.60;;
9214;SDS011;4642;51.364;6.788;2023-09-30T05:47:13;10.47;;;5.20;;
9214;SDS011;4642;51.364;6.788;2023-09-30T05:49:40;8.23;;;5.07;;
9214;SDS011;4642;51.364;6.788;2023-09-30T05:52:06;8.73;;;5.30;;
9214;SDS011;4642;51.364;6.788;2023-09-30T05:54:32;14.50;;;5.50;;
9214;SDS011;4642;51.364;6.788;2023-09-30T05:56:58;12.53;;;5.10;;
9214;SDS011;4642;51.364;6.788;2023-09-30T05:59:25;11.73;;;4.77;;
9214;SDS011;4642;51.364;6.788;2023-09-30T06:01:51;11.00;;;4.77;;
9214;SDS011;4642;51.364;6.788;2023-09-30T06:04:16;11.27;;;5.10;;
9214;SDS011;4642;51.364;6.788;2023-09-30T06:06:42;8.67;;;4.97;;
9214;SDS011;4642;51.364;6.788;2023-09-30T06:09:07;10.20;;;4.50;;
9214;SDS011;4642;51.364;6.788;2023-09-30T06:11:33;12.33;;;4.67;;
9214;SDS011;4642;51.364;6.788;2023-09-30T06:14:00;10.33;;;4.93;;
9214;SDS011;4642;51.364;6.788;2023-09-30T06:16:27;12.37;;;5.73;;
9214;SDS011;4642;51.364;6.788;2023-09-30T06:18:53;12.50;;;6.13;;
9214;SDS011;4642;51.364;6.788;2023-09-30T06:21:19;14.87;;;7.20;;
9214;SDS011;4642;51.364;6.788;2023-09-30T06:23:48;15.40;;;7.93;;
9214;SDS011;4642;51.364;6.788;2023-09-30T06:26:17;20.63;;;9.47;;
9214;SDS011;4642;51.364;6.788;2023-09-30T06:28:43;19.10;;;8.47;;
9214;SDS011;4642;51.364;6.788;2023-09-30T06:31:10;17.53;;;8.40;;
9214;SDS011;4642;51.364;6.788;2023-09-30T06:33:36;20.50;;;9.00;;
9214;SDS011;4642;51.364;6.788;2023-09-30T06:36:12;21.17;;;9.53;;
9214;SDS011;4642;51.364;6.788;2023-09-30T06:38:39;16.17;;;9.03;;
9214;SDS011;4642;51.364;6.788;2023-09-30T06:41:05;18.30;;;8.67;;
9214;SDS011;4642;51.364;6.788;2023-09-30T06:43:31;18.87;;;9.60;;
9214;SDS011;4642;51.364;6.788;2023-09-30T06:45:58;17.73;;;8.87;;
9214;SDS011;4642;51.364;6.788;2023-09-30T06:48:24;17.40;;;9.40;;
9214;SDS011;4642;51.364;6.788;2023-09-30T06:50:49;22.00;;;10.03;;
9214;SDS011;4642;51.364;6.788;2023-09-30T06:53:15;22.77;;;10.03;;
9214;SDS011;4642;51.364;6.788;2023-09-30T06:55:42;22.53;;;9.73;;
9214;SDS011;4642;51.364;6.788;2023-09-30T06:58:08;17.27;;;9.30;;
9214;SDS011;4642;51.364;6.788;2023-09-30T07:00:35;18.57;;;9.90;;
9214;SDS011;4642;51.364;6.788;2023-09-30T07:03:01;20.40;;;10.10;;
9214;SDS011;4642;51.364;6.788;2023-09-30T07:05:27;22.10;;;9.57;;
9214;SDS011;4642;51.364;6.788;2023-09-30T07:07:53;22.43;;;10.83;;
9214;SDS011;4642;51.364;6.788;2023-09-30T07:10:19;22.87;;;10.40;;
9214;SDS011;4642;51.364;6.788;2023-09-30T07:12:45;19.63;;;10.23;;
9214;SDS011;4642;51.364;6.788;2023-09-30T07:15:11;24.07;;;10.80;;
9214;SDS011;4642;51.364;6.788;2023-09-30T07:17:37;22.63;;;11.53;;
9214;SDS011;4642;51.364;6.788;2023-09-30T07:20:03;21.73;;;11.10;;
9214;SDS011;4642;51.364;6.788;2023-09-30T07:22:30;23.13;;;12.03;;
9214;SDS011;4642;51.364;6.788;2023-09-30T07:24:56;21.83;;;11.70;;
9214;SDS011;4642;51.364;6.788;2023-09-30T07:27:22;26.53;;;12.47;;
9214;SDS011;4642;51.364;6.788;2023-09-30T07:29:48;28.53;;;13.30;;
9214;SDS011;4642;51.364;6.788;2023-09-30T07:32:14;25.47;;;14.10;;
9214;SDS011;4642;51.364;6.788;2023-09-30T07:34:40;33.50;;;13.90;;
9214;SDS011;4642;51.364;6.788;2023-09-30T07:37:05;28.00;;;14.57;;
9214;SDS011;4642;51.364;6.788;2023-09-30T07:39:31;25.90;;;14.53;;
9214;SDS011;4642;51.364;6.788;2023-09-30T07:41:56;33.63;;;15.63;;
9214;SDS011;4642;51.364;6.788;2023-09-30T07:44:22;30.60;;;16.17;;
9214;SDS011;4642;51.364;6.788;2023-09-30T07:46:48;31.47;;;17.23;;
9214;SDS011;4642;51.364;6.788;2023-09-30T07:49:13;40.17;;;18.30;;
9214;SDS011;4642;51.364;6.788;2023-09-30T07:51:39;35.33;;;17.50;;
9214;SDS011;4642;51.364;6.788;2023-09-30T07:54:05;44.33;;;19.67;;
9214;SDS011;4642;51.364;6.788;2023-09-30T07:56:31;42.20;;;21.97;;
9214;SDS011;4642;51.364;6.788;2023-09-30T07:58:57;48.80;;;22.97;;
9214;SDS011;4642;51.364;6.788;2023-09-30T08:01:22;49.30;;;22.43;;
9214;SDS011;4642;51.364;6.788;2023-09-30T08:03:48;61.37;;;26.10;;
9214;SDS011;4642;51.364;6.788;2023-09-30T08:06:14;46.20;;;23.10;;
9214;SDS011;4642;51.364;6.788;2023-09-30T08:08:39;51.63;;;24.90;;
9214;SDS011;4642;51.364;6.788;2023-09-30T08:11:05;56.00;;;24.83;;
9214;SDS011;4642;51.364;6.788;2023-09-30T08:13:31;46.93;;;24.53;;
9214;SDS011;4642;51.364;6.788;2023-09-30T08:15:57;58.67;;;25.37;;
9214;SDS011;4642;51.364;6.788;2023-09-30T08:18:26;53.53;;;24.47;;
9214;SDS011;4642;51.364;6.788;2023-09-30T08:20:51;54.97;;;25.00;;
9214;SDS011;4642;51.364;6.788;2023-09-30T08:23:17;50.87;;;23.10;;
9214;SDS011;4642;51.364;6.788;2023-09-30T08:25:43;52.83;;;22.77;;
9214;SDS011;4642;51.364;6.788;2023-09-30T08:28:09;53.87;;;25.03;;
9214;SDS011;4642;51.364;6.788;2023-09-30T08:30:35;48.07;;;24.50;;
9214;SDS011;4642;51.364;6.788;2023-09-30T08:33:01;51.40;;;23.73;;
9214;SDS011;4642;51.364;6.788;2023-09-30T08:35:28;47.33;;;24.67;;
9214;SDS011;4642;51.364;6.788;2023-09-30T08:38:00;42.10;;;23.30;;
9214;SDS011;4642;51.364;6.788;2023-09-30T08:40:27;44.23;;;22.77;;
9214;SDS011;4642;51.364;6.788;2023-09-30T08:42:53;51.83;;;23.43;;
9214;SDS011;4642;51.364;6.788;2023-09-30T08:45:18;47.90;;;23.80;;
9214;SDS011;4642;51.364;6.788;2023-09-30T08:47:45;42.10;;;22.33;;
9214;SDS011;4642;51.364;6.788;2023-09-30T08:50:11;46.23;;;23.20;;
9214;SDS011;4642;51.364;6.788;2023-09-30T08:52:39;43.63;;;22.83;;
9214;SDS011;4642;51.364;6.788;2023-09-30T08:55:09;46.90;;;24.23;;
9214;SDS011;4642;51.364;6.788;2023-09-30T08:57:39;39.40;;;21.70;;
9214;SDS011;4642;51.364;6.788;2023-09-30T09:00:10;44.13;;;20.80;;
9214;SDS011;4642;51.364;6.788;2023-09-30T09:02:37;36.70;;;19.80;;
9214;SDS011;4642;51.364;6.788;2023-09-30T09:05:03;37.63;;;19.63;;
9214;SDS011;4642;51.364;6.788;2023-09-30T09:07:29;31.87;;;18.37;;
9214;SDS011;4642;51.364;6.788;2023-09-30T09:10:08;31.90;;;18.23;;
9214;SDS011;4642;51.364;6.788;2023-09-30T09:12:36;31.03;;;16.27;;
9214;SDS011;4642;51.364;6.788;2023-09-30T09:15:04;28.70;;;15.20;;
9214;SDS011;4642;51.364;6.788;2023-09-30T09:17:41;28.23;;;15.93;;
9214;SDS011;4642;51.364;6.788;2023-09-30T09:20:09;21.73;;;13.30;;
9214;SDS011;4642;51.364;6.788;2023-09-30T09:22:42;25.03;;;13.57;;
9214;SDS011;4642;51.364;6.788;2023-09-30T09:25:09;29.63;;;13.77;;
9214;SDS011;4642;51.364;6.788;2023-09-30T09:27:35;24.07;;;12.10;;
9214;SDS011;4642;51.364;6.788;2023-09-30T09:35:25;19.90;;;11.43;;
9214;SDS011;4642;51.364;6.788;2023-09-30T09:40:25;16.90;;;10.40;;
9214;SDS011;4642;51.364;6.788;2023-09-30T09:42:53;18.00;;;8.53;;
9214;SDS011;4642;51.364;6.788;2023-09-30T09:45:21;14.70;;;9.03;;
9214;SDS011;4642;51.364;6.788;2023-09-30T09:47:48;14.20;;;9.53;;
9214;SDS011;4642;51.364;6.788;2023-09-30T09:50:15;17.40;;;9.27;;
9214;SDS011;4642;51.364;6.788;2023-09-30T09:52:42;15.57;;;8.80;;
9214;SDS011;4642;51.364;6.788;2023-09-30T09:55:12;16.03;;;9.00;;
9214;SDS011;4642;51.364;6.788;2023-09-30T09:57:41;13.10;;;8.23;;
9214;SDS011;4642;51.364;6.788;2023-09-30T10:00:08;13.40;;;7.90;;
9214;SDS011;4642;51.364;6.788;2023-09-30T10:02:39;14.93;;;6.43;;
9214;SDS011;4642;51.364;6.788;2023-09-30T10:05:06;9.03;;;5.73;;
9214;SDS011;4642;51.364;6.788;2023-09-30T10:07:40;10.57;;;5.97;;
9214;SDS011;4642;51.364;6.788;2023-09-30T10:10:20;10.53;;;5.77;;
9214;SDS011;4642;51.364;6.788;2023-09-30T10:12:47;11.70;;;5.97;;
9214;SDS011;4642;51.364;6.788;2023-09-30T10:18:00;12.63;;;5.67;;
9214;SDS011;4642;51.364;6.788;2023-09-30T10:20:31;11.47;;;5.03;;
9214;SDS011;4642;51.364;6.788;2023-09-30T10:25:46;7.27;;;3.47;;
9214;SDS011;4642;51.364;6.788;2023-09-30T10:28:58;9.80;;;4.47;;
9214;SDS011;4642;51.364;6.788;2023-09-30T10:31:15;9.70;;;4.13;;
9214;SDS011;4642;51.364;6.788;2023-09-30T10:39:04;12.80;;;3.60;;
9214;SDS011;4642;51.364;6.788;2023-09-30T10:46:50;10.10;;;4.27;;
9214;SDS011;4642;51.364;6.788;2023-09-30T10:51:55;7.30;;;4.50;;
9214;SDS011;4642;51.364;6.788;2023-09-30T10:54:22;10.60;;;4.60;;
9214;SDS011;4642;51.364;6.788;2023-09-30T10:56:48;14.37;;;4.23;;
9214;SDS011;4642;51.364;6.788;2023-09-30T10:59:21;8.33;;;4.13;;
9214;SDS011;4642;51.364;6.788;2023-09-30T11:01:47;8.13;;;3.57;;
9214;SDS011;4642;51.364;6.788;2023-09-30T11:04:14;10.00;;;3.40;;
9214;SDS011;4642;51.364;6.788;2023-09-30T11:06:40;9.63;;;3.70;;
9214;SDS011;4642;51.364;6.788;2023-09-30T11:09:07;9.90;;;4.77;;
9214;SDS011;4642;51.364;6.788;2023-09-30T11:11:40;8.13;;;3.17;;
9214;SDS011;4642;51.364;6.788;2023-09-30T11:14:17;8.60;;;3.53;;
9214;SDS011;4642;51.364;6.788;2023-09-30T11:16:51;8.80;;;3.23;;
9214;SDS011;4642;51.364;6.788;2023-09-30T11:19:17;12.47;;;3.60;;
9214;SDS011;4642;51.364;6.788;2023-09-30T11:21:49;6.47;;;2.87;;
9214;SDS011;4642;51.364;6.788;2023-09-30T11:24:16;7.33;;;3.07;;
9214;SDS011;4642;51.364;6.788;2023-09-30T11:26:43;7.20;;;3.03;;
9214;SDS011;4642;51.364;6.788;2023-09-30T11:29:09;10.17;;;3.87;;
9214;SDS011;4642;51.364;6.788;2023-09-30T11:31:37;7.60;;;3.33;;
9214;SDS011;4642;51.364;6.788;2023-09-30T11:34:03;6.57;;;3.53;;
9214;SDS011;4642;51.364;6.788;2023-09-30T11:36:30;6.90;;;3.23;;
9214;SDS011;4642;51.364;6.788;2023-09-30T11:38:59;8.90;;;3.27;;
9214;SDS011;4642;51.364;6.788;2023-09-30T11:41:41;7.27;;;3.27;;
9214;SDS011;4642;51.364;6.788;2023-09-30T11:44:09;9.03;;;3.67;;
9214;SDS011;4642;51.364;6.788;2023-09-30T11:52:00;5.40;;;2.60;;
9214;SDS011;4642;51.364;6.788;2023-09-30T11:54:37;7.90;;;3.03;;
9214;SDS011;4642;51.364;6.788;2023-09-30T11:57:12;5.20;;;2.63;;
9214;SDS011;4642;51.364;6.788;2023-09-30T11:59:42;8.53;;;3.00;;
9214;SDS011;4642;51.364;6.788;2023-09-30T12:02:09;7.17;;;2.70;;
9214;SDS011;4642;51.364;6.788;2023-09-30T12:04:35;8.27;;;2.83;;
9214;SDS011;4642;51.364;6.788;2023-09-30T12:07:01;4.93;;;2.67;;
9214;SDS011;4642;51.364;6.788;2023-09-30T12:09:27;5.20;;;2.60;;
9214;SDS011;4642;51.364;6.788;2023-09-30T12:11:53;10.10;;;3.63;;
9214;SDS011;4642;51.364;6.788;2023-09-30T12:14:20;5.73;;;3.10;;
9214;SDS011;4642;51.364;6.788;2023-09-30T12:16:46;8.57;;;3.27;;
9214;SDS011;4642;51.364;6.788;2023-09-30T12:19:13;6.63;;;2.97;;
9214;SDS011;4642;51.364;6.788;2023-09-30T12:21:40;7.77;;;2.87;;
9214;SDS011;4642;51.364;6.788;2023-09-30T12:24:06;7.03;;;2.80;;
9214;SDS011;4642;51.364;6.788;2023-09-30T12:26:34;7.40;;;3.03;;
9214;SDS011;4642;51.364;6.788;2023-09-30T12:29:00;8.57;;;2.80;;
9214;SDS011;4642;51.364;6.788;2023-09-30T12:31:26;6.27;;;2.70;;
9214;SDS011;4642;51.364;6.788;2023-09-30T12:33:51;7.67;;;2.70;;
9214;SDS011;4642;51.364;6.788;2023-09-30T12:36:18;8.43;;;2.70;;
9214;SDS011;4642;51.364;6.788;2023-09-30T12:38:44;5.20;;;2.70;;
9214;SDS011;4642;51.364;6.788;2023-09-30T12:41:10;7.57;;;3.00;;
9214;SDS011;4642;51.364;6.788;2023-09-30T12:43:36;8.07;;;2.87;;
9214;SDS011;4642;51.364;6.788;2023-09-30T12:46:02;6.37;;;2.83;;
9214;SDS011;4642;51.364;6.788;2023-09-30T12:48:29;7.80;;;3.00;;
9214;SDS011;4642;51.364;6.788;2023-09-30T12:50:55;8.70;;;2.70;;
9214;SDS011;4642;51.364;6.788;2023-09-30T12:53:21;11.63;;;2.77;;
9214;SDS011;4642;51.364;6.788;2023-09-30T12:55:46;8.40;;;2.70;;
9214;SDS011;4642;51.364;6.788;2023-09-30T12:58:12;9.07;;;3.10;;
9214;SDS011;4642;51.364;6.788;2023-09-30T13:00:37;5.40;;;2.57;;
9214;SDS011;4642;51.364;6.788;2023-09-30T13:03:03;7.53;;;2.70;;
9214;SDS011;4642;51.364;6.788;2023-09-30T13:05:29;8.23;;;2.73;;
9214;SDS011;4642;51.364;6.788;2023-09-30T13:07:55;7.13;;;2.37;;
9214;SDS011;4642;51.364;6.788;2023-09-30T13:10:21;5.40;;;2.80;;
9214;SDS011;4642;51.364;6.788;2023-09-30T13:12:47;7.90;;;2.80;;
9214;SDS011;4642;51.364;6.788;2023-09-30T13:15:14;6.80;;;2.97;;
9214;SDS011;4642;51.364;6.788;2023-09-30T13:17:43;6.87;;;2.57;;
9214;SDS011;4642;51.364;6.788;2023-09-30T13:20:09;8.53;;;3.00;;
9214;SDS011;4642;51.364;6.788;2023-09-30T13:22:37;6.53;;;2.77;;
9214;SDS011;4642;51.364;6.788;2023-09-30T13:25:03;7.60;;;2.50;;
9214;SDS011;4642;51.364;6.788;2023-09-30T13:27:37;5.83;;;2.67;;
9214;SDS011;4642;51.364;6.788;2023-09-30T13:30:05;6.93;;;2.60;;
9214;SDS011;4642;51.364;6.788;2023-09-30T13:32:32;6.13;;;2.57;;
9214;SDS011;4642;51.364;6.788;2023-09-30T13:35:00;4.73;;;2.50;;
9214;SDS011;4642;51.364;6.788;2023-09-30T13:37:27;7.37;;;2.40;;
9214;SDS011;4642;51.364;6.788;2023-09-30T13:39:58;6.30;;;2.40;;
9214;SDS011;4642;51.364;6.788;2023-09-30T13:42:27;7.40;;;2.47;;
9214;SDS011;4642;51.364;6.788;2023-09-30T13:44:53;7.20;;;2.73;;
9214;SDS011;4642;51.364;6.788;2023-09-30T13:47:19;7.40;;;2.20;;
9214;SDS011;4642;51.364;6.788;2023-09-30T13:49:44;6.60;;;2.67;;
9214;SDS011;4642;51.364;6.788;2023-09-30T13:52:11;9.77;;;2.90;;
9214;SDS011;4642;51.364;6.788;2023-09-30T13:54:36;5.23;;;2.40;;
9214;SDS011;4642;51.364;6.788;2023-09-30T13:57:02;9.77;;;3.23;;
9214;SDS011;4642;51.364;6.788;2023-09-30T13:59:28;8.60;;;3.07;;
9214;SDS011;4642;51.364;6.788;2023-09-30T14:01:53;9.83;;;3.17;;
9214;SDS011;4642;51.364;6.788;2023-09-30T14:04:19;9.73;;;3.07;;
9214;SDS011;4642;51.364;6.788;2023-09-30T14:06:45;5.23;;;2.63;;
9214;SDS011;4642;51.364;6.788;2023-09-30T14:09:11;9.90;;;3.00;;
9214;SDS011;4642;51.364;6.788;2023-09-30T14:11:40;7.00;;;2.90;;
9214;SDS011;4642;51.364;6.788;2023-09-30T14:14:06;7.13;;;2.73;;
9214;SDS011;4642;51.364;6.788;2023-09-30T14:16:34;9.50;;;2.90;;
9214;SDS011;4642;51.364;6.788;2023-09-30T14:19:00;9.00;;;2.67;;
9214;SDS011;4642;51.364;6.788;2023-09-30T14:21:26;5.43;;;2.53;;
9214;SDS011;4642;51.364;6.788;2023-09-30T14:23:52;9.97;;;2.73;;
9214;SDS011;4642;51.364;6.788;2023-09-30T14:26:19;9.30;;;2.97;;
9214;SDS011;4642;51.364;6.788;2023-09-30T14:28:44;10.90;;;3.20;;
9214;SDS011;4642;51.364;6.788;2023-09-30T14:31:10;6.50;;;2.90;;
9214;SDS011;4642;51.364;6.788;2023-09-30T14:33:35;7.17;;;2.53;;
9214;SDS011;4642;51.364;6.788;2023-09-30T14:36:02;8.90;;;2.53;;
9214;SDS011;4642;51.364;6.788;2023-09-30T14:38:30;6.37;;;2.80;;
9214;SDS011;4642;51.364;6.788;2023-09-30T14:40:56;6.43;;;3.30;;
9214;SDS011;4642;51.364;6.788;2023-09-30T14:43:21;8.07;;;2.60;;
9214;SDS011;4642;51.364;6.788;2023-09-30T14:45:47;4.93;;;2.70;;
9214;SDS011;4642;51.364;6.788;2023-09-30T14:48:13;6.80;;;2.57;;
9214;SDS011;4642;51.364;6.788;2023-09-30T14:50:47;3.77;;;2.13;;
9214;SDS011;4642;51.364;6.788;2023-09-30T14:53:14;5.70;;;2.17;;
9214;SDS011;4642;51.364;6.788;2023-09-30T14:55:40;6.93;;;2.53;;
9214;SDS011;4642;51.364;6.788;2023-09-30T14:58:06;7.47;;;3.60;;
9214;SDS011;4642;51.364;6.788;2023-09-30T15:00:32;9.73;;;3.17;;
9214;SDS011;4642;51.364;6.788;2023-09-30T15:02:57;6.70;;;3.17;;
9214;SDS011;4642;51.364;6.788;2023-09-30T15:05:23;9.10;;;2.80;;
9214;SDS011;4642;51.364;6.788;2023-09-30T15:07:49;7.60;;;2.90;;
9214;SDS011;4642;51.364;6.788;2023-09-30T15:10:15;7.07;;;2.83;;
9214;SDS011;4642;51.364;6.788;2023-09-30T15:12:41;18.70;;;3.63;;
9214;SDS011;4642;51.364;6.788;2023-09-30T15:15:07;5.50;;;2.53;;
9214;SDS011;4642;51.364;6.788;2023-09-30T15:17:33;5.63;;;2.37;;
9214;SDS011;4642;51.364;6.788;2023-09-30T15:19:59;6.33;;;2.77;;
9214;SDS011;4642;51.364;6.788;2023-09-30T15:22:25;6.17;;;2.73;;
9214;SDS011;4642;51.364;6.788;2023-09-30T15:24:51;8.33;;;2.80;;
9214;SDS011;4642;51.364;6.788;2023-09-30T15:27:17;7.07;;;2.70;;
9214;SDS011;4642;51.364;6.788;2023-09-30T15:29:43;6.33;;;2.53;;
9214;SDS011;4642;51.364;6.788;2023-09-30T15:32:09;7.60;;;3.40;;
9214;SDS011;4642;51.364;6.788;2023-09-30T15:34:35;8.90;;;2.83;;